Time;durP1;ratioP1;P1;durP2;ratioP2;P2;SDS_P1;SDS_P2;PMS_P1;PMS_P2;Temp;Humidity;BMP_temperature;BMP_pressure;BME280_temperature;BME280_humidity;BME280_pressure;Samples;Min_cycle;Max_cycle;Signal;HPM_P1;HPM_P2
2022/03/31 00:15:07;;;;;;;1.97;1.77;;;4.00;98.90;;;;;;5844258;23;20238;-77
2022/03/31 00:17:33;;;;;;;1.27;1.20;;;4.00;99.00;;;;;;4928756;29;20050;-76
2022/03/31 00:19:58;;;;;;;2.33;2.13;;;4.00;99.70;;;;;;4934071;29;20032;-77
2022/03/31 00:22:24;;;;;;;3.43;2.20;;;4.00;99.30;;;;;;4933496;29;20043;-76
2022/03/31 00:24:49;;;;;;;4.07;2.53;;;4.00;99.90;;;;;;4933279;29;20106;-76
2022/03/31 00:27:15;;;;;;;2.43;2.23;;;3.90;99.70;;;;;;4933676;29;20039;-77
2022/03/31 00:29:41;;;;;;;2.67;2.47;;;3.90;99.70;;;;;;4932761;29;20044;-76
2022/03/31 00:32:07;;;;;;;2.50;2.30;;;3.90;99.90;;;;;;4932469;29;20393;-76
2022/03/31 00:34:35;;;;;;;2.40;2.00;;;3.90;99.90;;;;;;4933533;29;20020;-77
2022/03/31 00:37:01;;;;;;;3.80;2.73;;;3.90;99.90;;;;;;4932763;29;20035;-76
2022/03/31 00:39:31;;;;;;;2.73;2.40;;;3.80;99.90;;;;;;4932851;29;20031;-76
2022/03/31 00:41:59;;;;;;;4.53;2.93;;;3.90;99.90;;;;;;4933505;29;20024;-77
2022/03/31 00:44:26;;;;;;;3.13;2.83;;;3.90;99.90;;;;;;4915748;29;20035;-76
2022/03/31 00:46:53;;;;;;;3.23;2.93;;;3.90;99.90;;;;;;4926539;29;20031;-76
2022/03/31 00:49:20;;;;;;;5.60;2.90;;;3.80;99.90;;;;;;4933367;29;20035;-76
2022/03/31 00:51:47;;;;;;;3.87;3.30;;;3.80;99.90;;;;;;4933617;29;20047;-76
2022/03/31 00:54:16;;;;;;;4.33;3.17;;;3.80;99.90;;;;;;4933624;29;20095;-76
2022/03/31 00:56:42;;;;;;;2.77;2.50;;;3.80;99.90;;;;;;4933486;29;20091;-76
2022/03/31 00:59:10;;;;;;;2.90;2.60;;;3.80;99.90;;;;;;4933848;29;20362;-76
2022/03/31 01:01:39;;;;;;;2.67;2.47;;;3.80;99.90;;;;;;4933677;29;20023;-75
2022/03/31 01:04:08;;;;;;;2.63;2.43;;;3.80;99.90;;;;;;4930806;29;20461;-76
2022/03/31 01:06:34;;;;;;;2.30;2.10;;;3.80;99.90;;;;;;4933464;29;20063;-76
2022/03/31 01:09:00;;;;;;;3.03;2.20;;;3.80;99.90;;;;;;4932567;29;20058;-77
2022/03/31 01:11:28;;;;;;;2.63;2.13;;;3.80;99.90;;;;;;4932588;29;20103;-75
2022/03/31 01:13:54;;;;;;;2.70;2.50;;;3.70;99.90;;;;;;4932525;29;20024;-76
2022/03/31 02:46:57;;;;;;;3.23;1.00;;;3.40;97.30;;;;;;5053234;23;19931;-76
2022/03/31 02:49:23;;;;;;;1.37;1.17;;;3.40;95.80;;;;;;4917731;29;20036;-77
2022/03/31 02:51:48;;;;;;;3.90;1.03;;;3.40;97.90;;;;;;4918284;29;20066;-77
2022/03/31 02:56:58;;;;;;;1.60;1.30;;;3.40;96.50;;;;;;4935024;29;20039;-76
2022/03/31 02:59:24;;;;;;;2.37;1.10;;;3.30;95.70;;;;;;4935052;29;20027;-76
2022/03/31 03:01:50;;;;;;;1.97;1.40;;;3.30;96.40;;;;;;4935225;29;20024;-77
2022/03/31 03:04:16;;;;;;;3.07;1.10;;;3.30;95.80;;;;;;4932498;29;20023;-76
2022/03/31 03:06:42;;;;;;;4.20;1.43;;;3.30;97.00;;;;;;4934810;29;20038;-77
2022/03/31 03:09:08;;;;;;;2.10;1.03;;;3.40;96.10;;;;;;4918241;29;20032;-76
2022/03/31 03:11:34;;;;;;;1.10;1.00;;;3.30;96.30;;;;;;4934183;29;20040;-77
2022/03/31 03:14:00;;;;;;;2.93;1.20;;;3.30;96.10;;;;;;4934486;29;20106;-77
2022/03/31 03:16:25;;;;;;;2.70;1.43;;;3.30;95.90;;;;;;4934938;29;20122;-76
2022/03/31 03:18:52;;;;;;;2.33;1.57;;;3.30;95.70;;;;;;4934371;29;20035;-76
2022/03/31 03:21:19;;;;;;;1.00;0.90;;;3.30;96.20;;;;;;4934573;29;20098;-77
2022/03/31 03:23:46;;;;;;;1.00;1.00;;;3.30;95.70;;;;;;4935316;29;20562;-77
2022/03/31 03:26:12;;;;;;;1.17;1.07;;;3.30;95.90;;;;;;4934096;29;20036;-77
2022/03/31 03:28:38;;;;;;;1.67;1.10;;;3.30;96.00;;;;;;4934529;29;20070;-76
2022/03/31 03:31:05;;;;;;;2.73;1.10;;;3.30;94.60;;;;;;4934808;29;20040;-76
2022/03/31 03:33:31;;;;;;;1.43;1.10;;;3.30;95.00;;;;;;4934384;29;20028;-77
2022/03/31 03:35:57;;;;;;;1.77;1.40;;;3.40;95.60;;;;;;4932860;29;20043;-76
2022/03/31 03:38:23;;;;;;;3.33;1.20;;;3.30;95.10;;;;;;4934445;29;20074;-77
2022/03/31 03:40:49;;;;;;;1.30;1.20;;;3.30;94.70;;;;;;4935079;29;20112;-76
2022/03/31 03:43:15;;;;;;;1.53;1.23;;;3.30;95.40;;;;;;4935038;29;20038;-77
2022/03/31 04:45:14;;;;;;;4.83;2.67;;;2.90;97.20;;;;;;5924096;23;20120;-76
2022/03/31 04:47:39;;;;;;;3.30;2.70;;;2.90;95.70;;;;;;4931728;29;20035;-77
2022/03/31 04:50:05;;;;;;;3.40;2.30;;;2.90;96.30;;;;;;4922537;29;20115;-77
2022/03/31 04:52:31;;;;;;;5.33;2.27;;;3.00;96.00;;;;;;4925698;29;20436;-77
2022/03/31 04:54:57;;;;;;;4.40;2.57;;;2.90;96.70;;;;;;4926219;29;20024;-79
2022/03/31 04:57:22;;;;;;;5.37;2.70;;;2.80;95.60;;;;;;4922405;29;20040;-76
2022/03/31 04:59:48;;;;;;;5.20;2.47;;;2.80;96.10;;;;;;4925562;29;20042;-77
2022/03/31 05:02:14;;;;;;;2.77;2.37;;;2.80;95.60;;;;;;4925523;29;20090;-78
2022/03/31 05:04:40;;;;;;;5.13;2.73;;;2.80;95.90;;;;;;4926845;29;20027;-78
2022/03/31 05:07:06;;;;;;;4.67;2.33;;;2.80;96.10;;;;;;4922928;29;20036;-78
2022/03/31 05:09:32;;;;;;;6.73;2.63;;;2.80;96.60;;;;;;4906396;29;20035;-78
2022/03/31 05:11:58;;;;;;;3.57;2.57;;;2.80;96.30;;;;;;4916508;29;20036;-78
2022/03/31 05:14:24;;;;;;;2.87;2.23;;;2.70;95.40;;;;;;4922914;29;20047;-77
2022/03/31 05:16:50;;;;;;;3.80;2.37;;;2.70;96.40;;;;;;4923481;29;20417;-78
2022/03/31 05:19:16;;;;;;;4.60;2.60;;;2.70;96.20;;;;;;4926476;29;20031;-78
2022/03/31 05:21:42;;;;;;;5.43;2.37;;;2.60;96.30;;;;;;4921392;29;20175;-78
2022/03/31 05:24:07;;;;;;;4.43;2.53;;;2.70;94.90;;;;;;4923724;29;20520;-78
2022/03/31 05:26:33;;;;;;;5.63;2.83;;;2.60;96.30;;;;;;4927120;29;20034;-78
2022/03/31 05:29:00;;;;;;;3.30;2.37;;;2.60;95.90;;;;;;4922396;29;20029;-77
2022/03/31 05:31:26;;;;;;;5.47;2.80;;;2.50;96.20;;;;;;4924183;29;20474;-78
2022/03/31 05:33:51;;;;;;;4.73;2.33;;;2.40;96.60;;;;;;4926760;29;20027;-80
2022/03/31 05:36:17;;;;;;;5.93;2.90;;;2.30;96.50;;;;;;4921941;29;20032;-78
2022/03/31 05:38:43;;;;;;;4.77;3.10;;;2.20;96.20;;;;;;4923892;29;20036;-79
2022/03/31 05:41:08;;;;;;;6.60;2.77;;;2.10;96.40;;;;;;4926241;29;20110;-78
2022/03/31 05:43:34;;;;;;;8.90;3.10;;;2.10;97.40;;;;;;4926017;29;20023;-78
2022/03/31 05:46:00;;;;;;;3.77;2.90;;;2.20;98.90;;;;;;4924840;29;20091;-78
2022/03/31 05:48:25;;;;;;;4.60;3.23;;;2.10;97.10;;;;;;4921878;29;20052;-78
2022/03/31 05:50:51;;;;;;;5.23;3.00;;;2.00;96.40;;;;;;4926166;29;20046;-78
2022/03/31 05:53:17;;;;;;;5.17;3.50;;;1.90;97.10;;;;;;4923960;29;20039;-78
2022/03/31 05:55:43;;;;;;;6.20;3.53;;;1.90;97.10;;;;;;4921752;29;20154;-78
2022/03/31 05:58:09;;;;;;;4.33;2.87;;;1.80;97.70;;;;;;4921708;29;20060;-77
2022/03/31 06:00:35;;;;;;;6.53;3.27;;;1.80;97.90;;;;;;4924260;29;20076;-77
2022/03/31 06:03:00;;;;;;;3.83;2.90;;;1.90;98.00;;;;;;4926336;29;20031;-79
2022/03/31 06:05:26;;;;;;;3.27;2.80;;;1.90;98.10;;;;;;4922079;29;20032;-77
2022/03/31 06:07:52;;;;;;;5.07;2.97;;;2.00;98.00;;;;;;4924273;29;20024;-77
2022/03/31 06:10:20;;;;;;;3.57;2.80;;;1.90;97.80;;;;;;4925939;29;20380;-78
2022/03/31 06:12:46;;;;;;;4.37;2.83;;;2.00;97.80;;;;;;4921880;29;20056;-78
2022/03/31 06:15:12;;;;;;;4.67;3.10;;;2.00;98.00;;;;;;4924630;29;20028;-78
2022/03/31 06:17:42;;;;;;;5.23;3.23;;;1.90;98.10;;;;;;4925573;29;20090;-78
2022/03/31 06:20:10;;;;;;;6.87;3.80;;;1.90;98.30;;;;;;4921295;29;20016;-78
2022/03/31 06:22:35;;;;;;;11.33;3.63;;;1.90;98.20;;;;;;4922430;29;20047;-78
2022/03/31 06:25:02;;;;;;;8.17;4.13;;;2.00;98.40;;;;;;4906077;29;20371;-77
2022/03/31 06:27:28;;;;;;;5.63;3.63;;;2.00;97.80;;;;;;4908972;29;20031;-78
2022/03/31 06:29:54;;;;;;;7.13;4.07;;;2.00;98.30;;;;;;4925758;29;20267;-78
2022/03/31 06:32:20;;;;;;;4.77;3.63;;;2.20;99.80;;;;;;4914102;29;20044;-77
2022/03/31 06:34:45;;;;;;;8.50;4.70;;;2.20;98.00;;;;;;4930725;29;20094;-77
2022/03/31 06:37:13;;;;;;;7.30;4.40;;;2.20;97.70;;;;;;4925228;29;20031;-78
2022/03/31 06:39:39;;;;;;;9.30;5.83;;;2.30;97.60;;;;;;4910093;29;20032;-78
2022/03/31 06:42:04;;;;;;;11.67;5.17;;;2.30;97.90;;;;;;4922627;29;20028;-78
2022/03/31 06:44:31;;;;;;;8.57;4.10;;;2.40;97.30;;;;;;4925391;29;20020;-78
2022/03/31 07:46:32;;;;;;;3.67;2.93;;;3.90;91.90;;;;;;5394418;23;20044;-78
2022/03/31 07:48:59;;;;;;;7.03;3.33;;;4.00;90.00;;;;;;4911089;29;20486;-78
2022/03/31 07:51:26;;;;;;;5.57;3.37;;;4.00;91.10;;;;;;4926191;29;20035;-78
2022/03/31 07:53:52;;;;;;;4.30;3.93;;;4.00;90.80;;;;;;4923799;29;20481;-78
2022/03/31 07:56:18;;;;;;;3.97;2.90;;;4.00;89.70;;;;;;4928409;29;20034;-78
2022/03/31 07:58:44;;;;;;;7.23;2.97;;;4.10;90.20;;;;;;4926086;29;20481;-78
2022/03/31 08:01:09;;;;;;;3.93;3.43;;;4.10;87.90;;;;;;4923697;29;20124;-76
2022/03/31 08:03:35;;;;;;;5.50;3.73;;;4.10;88.50;;;;;;4923558;29;20092;-78
2022/03/31 08:06:01;;;;;;;6.90;3.50;;;4.20;90.10;;;;;;4926046;29;20552;-78
2022/03/31 08:08:28;;;;;;;7.20;4.53;;;4.20;90.40;;;;;;4927929;29;20040;-76
2022/03/31 08:10:53;;;;;;;6.00;2.87;;;4.40;88.40;;;;;;4923526;29;20047;-78
2022/03/31 08:13:27;;;;;;;3.63;3.07;;;4.50;89.40;;;;;;4926222;29;20408;-78
2022/03/31 08:15:53;;;;;;;4.33;3.00;;;4.60;88.00;;;;;;4926984;29;20496;-78
2022/03/31 08:18:23;;;;;;;5.03;3.33;;;4.60;85.60;;;;;;4923257;29;20370;-78
2022/03/31 08:20:49;;;;;;;3.30;2.97;;;4.70;85.50;;;;;;4927420;29;20016;-78
2022/03/31 08:23:15;;;;;;;3.43;2.70;;;4.90;88.00;;;;;;4925718;29;20063;-78
2022/03/31 08:25:41;;;;;;;2.60;2.40;;;5.10;87.80;;;;;;4923424;29;20059;-78
2022/03/31 08:28:07;;;;;;;9.97;2.80;;;5.30;86.40;;;;;;4910965;29;20038;-78
2022/03/31 08:30:33;;;;;;;3.27;2.40;;;5.50;84.40;;;;;;4925236;29;20400;-78
2022/03/31 08:32:59;;;;;;;5.47;2.83;;;5.70;82.40;;;;;;4905936;29;20111;-78
2022/03/31 08:35:28;;;;;;;8.93;2.53;;;5.80;84.50;;;;;;4929562;29;20493;-78
2022/03/31 08:37:54;;;;;;;4.35;2.40;;;6.10;83.30;;;;;;4926100;29;20028;-78
2022/03/31 08:40:20;;;;;;;2.22;1.77;;;6.50;82.30;;;;;;4926762;29;20016;-78
2022/03/31 08:42:46;;;;;;;4.60;2.08;;;6.60;77.90;;;;;;4923064;29;20031;-78
2022/03/31 08:47:44;;;;;;;3.30;1.67;;;7.00;74.10;;;;;;4929511;29;20043;-81
2022/03/31 08:50:11;;;;;;;2.67;1.83;;;7.30;70.30;;;;;;4905611;29;20083;-82
2022/03/31 08:52:37;;;;;;;2.95;2.10;;;7.90;73.40;;;;;;4926729;29;20559;-80
2022/03/31 08:55:03;;;;;;;3.17;1.85;;;8.10;70.90;;;;;;4924509;29;20019;-82
2022/03/31 08:57:50;;;;;;;3.47;1.98;;;8.00;68.80;;;;;;4922229;29;20027;-81
2022/03/31 09:00:18;;;;;;;4.68;2.28;;;7.70;67.30;;;;;;4922454;29;20511;-83
2022/03/31 09:02:56;;;;;;;4.15;2.15;;;7.70;68.00;;;;;;4926585;29;20023;-81
2022/03/31 09:05:22;;;;;;;2.65;2.03;;;7.30;67.30;;;;;;4926780;29;20059;-81
2022/03/31 09:08:00;;;;;;;5.82;2.05;;;7.20;70.30;;;;;;4924384;29;20060;-81
2022/03/31 09:10:29;;;;;;;3.08;2.00;;;7.50;69.80;;;;;;4923442;29;20032;-83
2022/03/31 09:12:55;;;;;;;2.75;2.10;;;7.80;68.80;;;;;;4926187;29;20381;-81
2022/03/31 09:15:21;;;;;;;4.15;2.28;;;7.80;68.00;;;;;;4916863;29;20035;-82
2022/03/31 09:17:53;;;;;;;4.78;2.13;;;7.90;68.80;;;;;;4929287;29;20121;-81
2022/03/31 09:20:20;;;;;;;8.35;2.42;;;7.90;68.10;;;;;;4905712;29;20028;-81
2022/03/31 09:22:50;;;;;;;3.40;2.08;;;8.40;65.40;;;;;;4926811;29;20074;-81
2022/03/31 09:25:27;;;;;;;6.68;2.28;;;9.10;65.70;;;;;;4922286;29;20080;-82
2022/03/31 09:27:53;;;;;;;4.35;2.10;;;9.50;63.00;;;;;;4924929;29;20082;-82
2022/03/31 09:30:19;;;;;;;7.28;2.30;;;9.60;61.50;;;;;;4908620;29;20556;-81
2022/03/31 09:32:49;;;;;;;3.75;2.22;;;9.50;64.90;;;;;;4921735;29;20035;-82
2022/03/31 09:35:20;;;;;;;4.47;2.05;;;9.30;63.40;;;;;;4925646;29;20120;-81
2022/03/31 09:37:48;;;;;;;9.07;3.83;;;9.30;63.00;;;;;;4906851;29;20054;-82
2022/03/31 09:40:13;;;;;;;26.02;9.80;;;8.80;62.80;;;;;;4921624;29;20481;-82
2022/03/31 09:42:39;;;;;;;14.27;5.50;;;8.40;63.10;;;;;;4926488;29;20024;-82
2022/03/31 09:45:08;;;;;;;14.40;5.25;;;8.90;64.20;;;;;;4923347;29;20033;-82
2022/03/31 09:47:45;;;;;;;18.60;5.95;;;8.90;64.10;;;;;;4929978;23;20116;-78
2022/03/31 09:50:12;;;;;;;10.65;4.68;;;9.10;64.60;;;;;;4926449;29;20079;-78
2022/03/31 09:52:38;;;;;;;11.27;5.32;;;9.20;64.40;;;;;;4921410;29;20040;-79
2022/03/31 09:55:04;;;;;;;5.72;2.67;;;9.40;60.10;;;;;;4924240;29;20036;-78
2022/03/31 09:57:31;;;;;;;5.47;2.22;;;9.00;60.50;;;;;;4925840;29;20027;-78
2022/03/31 09:59:58;;;;;;;3.60;1.88;;;9.10;63.70;;;;;;4904823;29;20024;-78
2022/03/31 10:02:24;;;;;;;3.90;1.83;;;8.80;61.70;;;;;;4924035;29;20028;-78
2022/03/31 10:04:50;;;;;;;6.38;2.10;;;8.40;65.40;;;;;;4918943;29;20028;-78
2022/03/31 10:07:16;;;;;;;4.70;2.67;;;8.20;65.10;;;;;;4926807;29;20020;-78
2022/03/31 10:09:43;;;;;;;5.28;2.53;;;8.60;68.20;;;;;;4926812;29;20384;-78
2022/03/31 10:12:32;;;;;;;10.00;2.65;;;9.60;63.90;;;;;;4925771;29;20028;-78
2022/03/31 10:15:05;;;;;;;3.33;2.15;;;11.10;60.30;;;;;;4927704;29;20548;-78
2022/03/31 10:17:31;;;;;;;3.28;2.45;;;12.70;54.70;;;;;;4924930;29;20035;-79
2022/03/31 10:20:26;;;;;;;4.28;2.17;;;13.40;51.60;;;;;;4930028;29;20024;-78
2022/03/31 10:25:41;;;;;;;3.35;1.80;;;13.30;50.40;;;;;;4925527;29;20038;-78
2022/03/31 10:28:12;;;;;;;4.82;1.80;;;10.60;53.60;;;;;;4924831;29;20462;-78
2022/03/31 10:30:39;;;;;;;2.83;1.80;;;10.20;59.10;;;;;;4928084;29;20027;-78
2022/03/31 10:33:10;;;;;;;3.40;1.77;;;9.80;59.30;;;;;;4910897;29;20031;-78
2022/03/31 10:35:41;;;;;;;1.48;1.33;;;9.00;60.20;;;;;;4925054;29;20400;-78
2022/03/31 10:38:17;;;;;;;6.18;1.30;;;8.40;63.80;;;;;;4924867;29;20031;-78
2022/03/31 10:40:45;;;;;;;2.60;1.30;;;8.10;64.90;;;;;;4929140;29;20019;-78
2022/03/31 10:43:24;;;;;;;3.92;1.05;;;7.80;66.10;;;;;;4910180;29;20028;-78
2022/03/31 10:45:54;;;;;;;1.20;1.10;;;6.80;75.60;;;;;;4921429;23;20060;-79
2022/03/31 10:48:31;;;;;;;0.93;0.93;;;6.50;82.80;;;;;;4912254;29;20047;-80
2022/03/31 10:51:32;;;;;;;1.90;1.02;;;6.70;87.60;;;;;;4924234;29;20043;-81
2022/03/31 10:53:58;;;;;;;0.70;0.67;;;6.70;86.90;;;;;;4925495;29;20020;-81
2022/03/31 10:56:26;;;;;;;2.38;1.25;;;6.80;86.90;;;;;;4929349;29;20043;-80
2022/03/31 10:58:58;;;;;;;1.25;1.15;;;7.00;86.80;;;;;;4924680;29;20594;-80
2022/03/31 11:01:31;;;;;;;;;;;7.30;83.90;;;;;;4909665;29;20115;-80
2022/03/31 11:04:11;;;;;;;2.22;1.00;;;8.00;88.00;;;;;;4927304;29;19969;-80
2022/03/31 11:06:46;;;;;;;0.90;0.90;;;8.80;79.50;;;;;;4908121;29;20044;-81
2022/03/31 11:09:23;;;;;;;2.38;1.10;;;9.00;79.30;;;;;;4929220;29;20102;-80
2022/03/31 11:11:51;;;;;;;3.03;0.80;;;9.20;75.80;;;;;;4923810;29;20115;-80
2022/03/31 11:14:17;;;;;;;2.90;0.80;;;9.30;73.90;;;;;;4927486;29;20024;-80
2022/03/31 11:16:44;;;;;;;1.10;0.80;;;9.10;74.40;;;;;;4927352;29;20354;-81
2022/03/31 11:19:11;;;;;;;4.22;1.02;;;8.70;79.50;;;;;;4924141;29;20084;-79
2022/03/31 11:21:42;;;;;;;1.70;1.08;;;8.20;77.50;;;;;;4927912;29;20027;-79
2022/03/31 11:24:09;;;;;;;2.38;1.13;;;8.30;80.80;;;;;;4925434;29;20479;-79
2022/03/31 11:26:41;;;;;;;3.30;1.50;;;8.50;78.00;;;;;;4924423;29;20035;-80
2022/03/31 11:29:12;;;;;;;3.40;1.23;;;8.40;73.80;;;;;;4928783;29;20556;-81
2022/03/31 11:31:45;;;;;;;5.10;1.38;;;8.90;77.80;;;;;;4923628;29;20087;-81
2022/03/31 11:34:23;;;;;;;4.30;1.00;;;9.50;70.90;;;;;;4909549;29;20028;-81
2022/03/31 11:36:51;;;;;;;5.55;1.00;;;11.00;70.40;;;;;;4925412;29;20777;-80
2022/03/31 11:39:24;;;;;;;5.07;1.17;;;12.60;62.30;;;;;;4923998;29;20031;-81
2022/03/31 11:41:50;;;;;;;2.13;1.10;;;13.90;59.50;;;;;;4928537;29;20030;-81
2022/03/31 11:44:15;;;;;;;3.95;1.75;;;14.60;54.90;;;;;;4924327;29;20028;-81
2022/03/31 11:46:48;;;;;;;4.07;1.10;;;16.20;54.50;;;;;;4943053;23;20448;-79
2022/03/31 11:49:20;;;;;;;2.75;1.20;;;16.50;49.60;;;;;;4927858;29;20068;-79
2022/03/31 11:51:50;;;;;;;2.92;1.23;;;16.30;45.40;;;;;;4924099;29;20435;-79
2022/03/31 11:54:16;;;;;;;5.03;1.60;;;14.70;49.70;;;;;;4927747;29;20031;-79
2022/03/31 11:56:42;;;;;;;7.40;1.60;;;13.30;52.40;;;;;;4916455;29;20075;-79
2022/03/31 11:59:08;;;;;;;5.22;1.80;;;11.90;52.70;;;;;;4923879;29;20366;-79
2022/03/31 12:01:43;;;;;;;8.05;2.20;;;11.00;55.00;;;;;;4927526;29;20051;-80
2022/03/31 12:04:20;;;;;;;9.48;1.77;;;10.60;56.70;;;;;;4927022;29;21125;-80
2022/03/31 12:06:51;;;;;;;6.95;1.63;;;10.30;57.20;;;;;;4926265;29;20035;-78
2022/03/31 12:09:17;;;;;;;6.65;1.27;;;9.90;55.20;;;;;;4923851;29;20038;-79
2022/03/31 12:11:43;;;;;;;1.40;1.20;;;9.80;53.50;;;;;;4928171;29;20031;-79
2022/03/31 12:14:10;;;;;;;2.67;1.00;;;9.70;51.90;;;;;;4925042;29;20660;-79
2022/03/31 12:16:50;;;;;;;6.47;1.15;;;10.10;54.90;;;;;;4924070;29;20059;-79
2022/03/31 12:19:17;;;;;;;5.78;0.82;;;10.20;49.50;;;;;;4927514;29;20075;-79
2022/03/31 12:21:50;;;;;;;5.43;1.25;;;9.80;47.00;;;;;;4923136;29;20106;-79
2022/03/31 12:24:17;;;;;;;5.20;1.23;;;10.00;49.30;;;;;;4926890;29;20110;-79
2022/03/31 12:26:57;;;;;;;6.20;1.80;;;10.00;47.70;;;;;;4926238;29;20142;-79
2022/03/31 12:29:24;;;;;;;5.18;1.20;;;10.10;48.20;;;;;;4924228;29;20381;-79
2022/03/31 12:32:00;;;;;;;7.95;0.80;;;10.30;48.00;;;;;;4927615;29;20357;-79
2022/03/31 12:34:26;;;;;;;5.25;1.42;;;10.50;46.90;;;;;;4928037;29;20024;-78
2022/03/31 12:36:52;;;;;;;7.05;1.23;;;10.70;44.70;;;;;;4927623;29;20106;-78
2022/03/31 12:39:17;;;;;;;3.22;1.20;;;11.50;45.50;;;;;;4927038;29;20444;-79
2022/03/31 12:41:53;;;;;;;2.78;1.02;;;11.30;44.50;;;;;;4923050;29;20028;-79
2022/03/31 12:44:21;;;;;;;8.07;1.35;;;11.60;43.30;;;;;;4927418;29;20476;-78
2022/03/31 12:46:56;;;;;;;6.05;1.40;;;11.10;41.30;;;;;;4926560;23;20103;-82
2022/03/31 12:49:31;;;;;;;2.78;0.80;;;11.70;39.40;;;;;;4903582;29;20028;-84
2022/03/31 12:52:01;;;;;;;3.67;1.00;;;13.50;38.10;;;;;;4897051;29;20123;-82
2022/03/31 12:54:34;;;;;;;3.55;0.60;;;12.40;32.90;;;;;;4903818;29;20052;-82
2022/03/31 12:57:02;;;;;;;6.05;1.08;;;11.90;35.40;;;;;;4896831;29;20470;-83
2022/03/31 12:59:30;;;;;;;1.52;0.85;;;11.80;37.10;;;;;;4910353;29;20020;-84
2022/03/31 13:02:08;;;;;;;3.75;1.42;;;12.70;34.90;;;;;;4896734;29;20427;-84
2022/03/31 13:04:46;;;;;;;3.22;0.77;;;14.30;33.30;;;;;;4896631;29;20120;-85
2022/03/31 13:07:21;;;;;;;2.75;0.80;;;15.80;30.00;;;;;;4897032;29;20043;-83
2022/03/31 13:09:47;;;;;;;2.97;1.02;;;14.90;28.50;;;;;;4904008;29;20589;-84
2022/03/31 13:12:14;;;;;;;5.10;0.98;;;13.60;32.70;;;;;;4879758;29;20048;-84
2022/03/31 13:14:44;;;;;;;3.42;0.82;;;14.30;33.50;;;;;;4896338;29;20128;-83
2022/03/31 13:17:14;;;;;;;5.88;0.80;;;16.90;27.60;;;;;;4903144;29;20032;-84
2022/03/31 13:19:40;;;;;;;4.05;1.05;;;17.50;28.20;;;;;;4879591;29;20433;-84
2022/03/31 13:22:08;;;;;;;3.53;0.75;;;17.60;27.20;;;;;;4896287;29;20044;-84
2022/03/31 13:24:34;;;;;;;2.33;0.70;;;16.70;28.20;;;;;;4896389;29;20031;-84
2022/03/31 13:27:00;;;;;;;2.13;0.70;;;14.70;29.90;;;;;;4896326;29;20033;-84
2022/03/31 13:29:27;;;;;;;1.42;0.40;;;13.30;27.80;;;;;;4896200;29;20029;-83
2022/03/31 13:31:55;;;;;;;1.67;0.73;;;13.10;27.80;;;;;;4886218;29;20071;-84
2022/03/31 13:34:22;;;;;;;7.47;0.73;;;13.80;29.70;;;;;;4900830;29;20119;-84
2022/03/31 13:36:49;;;;;;;5.85;0.75;;;14.30;30.00;;;;;;4890669;29;20036;-83
2022/03/31 13:39:15;;;;;;;1.10;0.57;;;13.60;29.80;;;;;;4900652;29;20591;-84
2022/03/31 13:41:44;;;;;;;5.72;0.95;;;13.50;31.70;;;;;;4896105;29;20103;-84
2022/03/31 13:44:14;;;;;;;5.45;0.90;;;12.70;29.90;;;;;;4900229;29;20037;-84
2022/03/31 13:46:41;;;;;;;5.35;1.08;;;13.00;31.20;;;;;;4934397;23;20507;-80
2022/03/31 13:49:09;;;;;;;4.43;1.00;;;12.80;32.90;;;;;;4937797;29;20063;-80
2022/03/31 13:51:35;;;;;;;4.18;0.80;;;13.50;33.30;;;;;;4937377;29;20040;-80
2022/03/31 13:54:06;;;;;;;3.20;0.90;;;14.10;29.50;;;;;;4937412;29;20028;-79
2022/03/31 13:56:33;;;;;;;3.60;1.02;;;14.80;27.40;;;;;;4920179;29;20043;-80
2022/03/31 14:01:44;;;;;;;3.58;0.80;;;15.60;29.00;;;;;;4931667;29;20031;-80
2022/03/31 14:04:09;;;;;;;11.65;0.90;;;16.10;29.60;;;;;;4936350;29;20035;-81
2022/03/31 14:06:35;;;;;;;4.68;0.90;;;17.40;24.40;;;;;;4936867;29;20024;-80
2022/03/31 14:09:04;;;;;;;6.65;0.80;;;16.70;27.70;;;;;;4937372;29;20055;-81
2022/03/31 14:11:32;;;;;;;1.52;0.43;;;18.10;28.40;;;;;;4937024;29;20040;-80
2022/03/31 14:13:59;;;;;;;4.75;0.70;;;17.90;26.10;;;;;;4937132;29;20026;-80
2022/03/31 14:16:28;;;;;;;2.58;0.80;;;17.50;24.40;;;;;;4937201;29;20679;-80
2022/03/31 14:18:55;;;;;;;1.35;0.60;;;18.00;24.80;;;;;;4936977;29;20536;-81
2022/03/31 14:21:21;;;;;;;3.17;0.77;;;18.00;26.20;;;;;;4936296;29;20083;-81
2022/03/31 14:23:48;;;;;;;6.22;0.80;;;17.60;22.30;;;;;;4936901;29;20149;-81
2022/03/31 14:26:15;;;;;;;1.35;0.57;;;18.00;22.70;;;;;;4937230;29;20046;-80
2022/03/31 14:28:43;;;;;;;2.72;0.57;;;18.20;22.50;;;;;;4936699;29;20035;-81
2022/03/31 14:31:12;;;;;;;3.33;0.60;;;16.70;23.40;;;;;;4936288;29;20074;-80
2022/03/31 14:33:39;;;;;;;6.60;0.70;;;18.10;23.00;;;;;;4936409;29;20082;-80
2022/03/31 14:36:06;;;;;;;2.65;0.65;;;17.50;24.80;;;;;;4936206;29;20020;-81
2022/03/31 14:38:33;;;;;;;5.22;0.82;;;19.40;23.30;;;;;;4936315;29;20039;-81
2022/03/31 14:41:09;;;;;;;4.90;0.73;;;20.40;20.40;;;;;;4936449;29;20480;-81
2022/03/31 14:43:38;;;;;;;4.78;0.73;;;20.90;21.00;;;;;;4930592;29;20028;-81
2022/03/31 14:46:09;;;;;;;7.10;1.30;;;20.00;21.30;;;;;;4945563;23;20111;-84
2022/03/31 14:48:35;;;;;;;3.92;0.73;;;18.60;22.50;;;;;;4917756;29;20101;-78
2022/03/31 14:51:02;;;;;;;1.75;0.57;;;19.60;23.00;;;;;;4908218;29;20128;-78
2022/03/31 14:53:28;;;;;;;3.05;0.77;;;18.00;22.30;;;;;;4905325;29;20084;-78
2022/03/31 14:55:54;;;;;;;1.38;0.52;;;18.20;20.80;;;;;;4906187;29;20107;-79
2022/03/31 14:58:20;;;;;;;0.75;0.47;;;18.80;22.60;;;;;;4904446;29;20067;-78
2022/03/31 15:00:46;;;;;;;3.95;0.50;;;19.50;21.20;;;;;;4904916;29;20043;-80
2022/03/31 15:03:12;;;;;;;3.40;0.70;;;21.10;21.40;;;;;;4903440;29;20039;-79
2022/03/31 15:05:38;;;;;;;5.75;0.80;;;21.30;22.30;;;;;;4888229;29;20040;-80
2022/03/31 15:08:04;;;;;;;2.40;0.65;;;20.60;21.30;;;;;;4904968;29;20024;-79
2022/03/31 15:15:59;;;;;;;2.15;0.82;;;15.60;22.70;;;;;;4904918;29;20071;-79
2022/03/31 15:18:25;;;;;;;3.08;0.90;;;17.00;25.30;;;;;;4906450;29;20461;-82
2022/03/31 15:20:54;;;;;;;4.03;1.08;;;18.40;23.60;;;;;;4904419;29;20103;-82
2022/03/31 15:23:23;;;;;;;4.18;0.60;;;17.00;23.90;;;;;;4909592;29;20071;-82
2022/03/31 15:25:50;;;;;;;2.63;0.50;;;16.40;21.60;;;;;;4908790;29;20029;-81
2022/03/31 15:28:16;;;;;;;3.47;0.60;;;16.10;21.90;;;;;;4910633;29;20032;-84
2022/03/31 15:30:42;;;;;;;1.65;0.43;;;16.30;21.80;;;;;;4910663;29;20027;-82
2022/03/31 15:33:09;;;;;;;3.95;0.60;;;17.40;21.60;;;;;;4910437;29;20142;-83
2022/03/31 15:35:39;;;;;;;0.73;0.40;;;17.20;20.60;;;;;;4915882;29;20024;-80
2022/03/31 15:38:06;;;;;;;2.50;0.57;;;16.80;22.10;;;;;;4911042;29;20094;-82
2022/03/31 15:40:32;;;;;;;4.07;0.80;;;15.90;21.60;;;;;;4910467;29;20079;-80
2022/03/31 15:42:59;;;;;;;3.25;1.20;;;17.40;23.30;;;;;;4893487;29;20034;-81
2022/03/31 15:48:07;;;;;;;4.72;1.33;;;18.70;23.80;;;;;;4914533;29;20043;-79
2022/03/31 15:50:33;;;;;;;3.75;0.70;;;18.40;22.20;;;;;;4912290;29;20043;-80
2022/03/31 15:53:00;;;;;;;3.30;0.75;;;17.90;22.80;;;;;;4914929;29;20032;-78
2022/03/31 15:55:27;;;;;;;3.63;0.60;;;18.10;23.60;;;;;;4914757;29;20024;-80
2022/03/31 15:57:54;;;;;;;4.35;0.80;;;17.30;23.30;;;;;;4915030;29;20044;-79
2022/03/31 16:00:21;;;;;;;3.67;0.73;;;15.70;24.50;;;;;;4915744;29;20503;-79
2022/03/31 16:02:47;;;;;;;1.35;0.73;;;14.80;25.70;;;;;;4915521;29;20483;-80
2022/03/31 16:05:13;;;;;;;4.43;1.15;;;14.20;24.70;;;;;;4919816;29;20044;-80
2022/03/31 16:07:39;;;;;;;6.78;0.85;;;13.60;25.70;;;;;;4915370;29;20020;-78
2022/03/31 16:10:06;;;;;;;2.90;1.02;;;13.80;26.70;;;;;;4915553;29;20060;-77
2022/03/31 16:12:32;;;;;;;5.13;1.20;;;14.00;26.20;;;;;;4914931;29;20131;-80
2022/03/31 16:14:57;;;;;;;3.35;0.52;;;13.80;26.50;;;;;;4913926;29;20117;-79
2022/03/31 16:17:23;;;;;;;5.53;0.90;;;13.50;26.90;;;;;;4915044;29;20122;-78
2022/03/31 16:19:49;;;;;;;4.88;0.80;;;12.70;25.40;;;;;;4898372;29;20083;-79
2022/03/31 16:22:18;;;;;;;1.42;0.57;;;12.20;26.60;;;;;;4914836;29;20504;-80
2022/03/31 16:24:45;;;;;;;7.97;0.80;;;11.80;28.00;;;;;;4914934;29;20028;-79
2022/03/31 16:27:11;;;;;;;4.85;0.68;;;11.90;27.60;;;;;;4902718;29;20491;-79
2022/03/31 16:29:38;;;;;;;1.95;0.82;;;11.90;26.10;;;;;;4897617;29;20056;-79
2022/03/31 16:32:04;;;;;;;5.32;1.00;;;11.80;25.70;;;;;;4913244;29;20032;-80
2022/03/31 16:34:30;;;;;;;3.72;0.80;;;11.50;26.70;;;;;;4919464;29;20032;-79
2022/03/31 16:36:56;;;;;;;3.05;0.90;;;11.30;26.80;;;;;;4914010;29;20035;-79
2022/03/31 16:39:22;;;;;;;3.50;0.80;;;11.20;27.80;;;;;;4914831;29;20079;-79
2022/03/31 16:41:48;;;;;;;3.50;0.75;;;10.90;27.60;;;;;;4898562;29;20067;-79
2022/03/31 16:44:16;;;;;;;4.53;0.80;;;11.00;28.40;;;;;;4914864;29;20436;-79
2022/03/31 16:46:43;;;;;;;2.78;1.10;;;11.10;27.80;;;;;;4933784;23;20051;-80
2022/03/31 16:49:09;;;;;;;2.97;0.70;;;11.00;28.00;;;;;;4933383;29;20030;-80
2022/03/31 16:51:36;;;;;;;2.40;0.80;;;10.90;27.80;;;;;;4933959;29;20421;-81
2022/03/31 16:54:03;;;;;;;2.40;0.90;;;10.70;29.00;;;;;;4929510;29;20516;-80
2022/03/31 16:56:29;;;;;;;3.03;1.10;;;10.40;27.70;;;;;;4929402;29;20027;-80
2022/03/31 16:58:55;;;;;;;1.58;0.65;;;10.20;28.10;;;;;;4933907;29;20035;-81